createdAt,value
2023-01-02T00:01:05.382Z,10.6
2023-01-02T00:05:08.187Z,10.6
2023-01-02T00:10:08.046Z,10.8
2023-01-02T00:15:07.850Z,10.8
2023-01-02T00:20:08.741Z,10.8
2023-01-02T00:25:08.555Z,10.8
2023-01-02T00:30:08.365Z,10.8
2023-01-02T00:35:08.191Z,10.8
2023-01-02T00:40:12.750Z,10.8
2023-01-02T00:45:08.593Z,10.8
2023-01-02T00:50:08.399Z,10.8
2023-01-02T00:55:08.193Z,10.8
2023-01-02T01:00:08.005Z,10.8
2023-01-02T01:05:07.851Z,10.8
2023-01-02T01:10:08.689Z,10.8
2023-01-02T01:15:08.503Z,10.8
2023-01-02T01:20:08.311Z,10.8
2023-01-02T01:25:08.084Z,10.8
2023-01-02T01:30:07.906Z,10.8
2023-01-02T01:35:08.712Z,10.8
2023-01-02T01:40:08.576Z,10.8
2023-01-02T01:45:08.409Z,10.8
2023-01-02T01:50:08.208Z,10.8
2023-01-02T01:55:08.004Z,10.8
2023-01-02T02:00:07.777Z,10.8
2023-01-02T02:05:08.615Z,11.0
2023-01-02T02:10:08.416Z,11.0
2023-01-02T02:15:08.227Z,11.1
2023-01-02T02:20:08.034Z,11.1
2023-01-02T02:25:07.886Z,11.1
2023-01-02T02:30:08.720Z,11.3
2023-01-02T02:35:18.487Z,11.3
2023-01-02T02:40:08.308Z,11.3
2023-01-02T02:45:08.127Z,11.6
2023-01-02T02:50:07.939Z,11.3
2023-01-02T02:55:07.748Z,11.3
2023-01-02T03:00:08.536Z,11.3
2023-01-02T03:05:08.335Z,11.3
2023-01-02T03:10:08.137Z,11.3
2023-01-02T03:15:08.136Z,11.3
2023-01-02T03:20:07.939Z,11.3
2023-01-02T03:25:07.753Z,11.3
2023-01-02T03:30:08.567Z,11.3
2023-01-02T03:35:08.432Z,11.3
2023-01-02T03:40:08.289Z,11.3
2023-01-02T03:45:08.128Z,11.3
2023-01-02T03:50:07.968Z,11.3
2023-01-02T03:55:07.794Z,11.3
2023-01-02T04:00:08.636Z,11.3
2023-01-02T04:05:08.438Z,11.3
2023-01-02T04:10:08.298Z,11.3
2023-01-02T04:15:08.140Z,11.3
2023-01-02T04:20:07.981Z,11.3
2023-01-02T04:25:07.805Z,11.3
2023-01-02T04:30:08.632Z,11.3
2023-01-02T04:35:08.447Z,11.3
2023-01-02T04:40:08.237Z,11.3
2023-01-02T04:45:08.042Z,11.3
2023-01-02T04:50:07.839Z,11.3
2023-01-02T04:55:08.678Z,11.3
2023-01-02T05:00:08.571Z,11.3
2023-01-02T05:05:02.552Z,11.1
2023-01-02T05:10:02.499Z,11.1
2023-01-02T05:15:02.450Z,11.1
2023-01-02T05:20:02.326Z,11.1
2023-01-02T05:25:02.222Z,11.1
2023-01-02T05:30:02.177Z,11.1
2023-01-02T05:35:02.186Z,11.1
2023-01-02T05:40:02.094Z,11.1
2023-01-02T05:45:02.022Z,11.1
2023-01-02T05:50:01.943Z,11.1
2023-01-02T05:55:02.882Z,11.1
2023-01-02T06:00:02.878Z,11.1
2023-01-02T06:05:02.779Z,11.1
2023-01-02T06:10:02.714Z,11.6
2023-01-02T06:15:02.765Z,11.6
2023-01-02T06:20:02.680Z,12.3
2023-01-02T06:25:02.645Z,12.3
2023-01-02T06:30:02.689Z,12.5
2023-01-02T06:35:02.587Z,12.5
2023-01-02T06:40:02.546Z,12.5
2023-01-02T06:45:02.587Z,12.6
2023-01-02T06:50:02.477Z,12.5
2023-01-02T06:55:02.321Z,12.5
2023-01-02T07:00:03.630Z,12.5
2023-01-02T07:05:02.722Z,12.5
2023-01-02T07:10:02.755Z,12.3
2023-01-02T07:15:02.785Z,12.1
2023-01-02T07:20:02.896Z,12.1
2023-01-02T07:25:02.935Z,11.3
2023-01-02T07:30:01.974Z,11.1
2023-01-02T07:35:02.040Z,11.1
2023-01-02T07:40:01.960Z,11.1
2023-01-02T07:45:02.027Z,11.1
2023-01-02T07:50:02.007Z,10.8
2023-01-02T07:55:01.961Z,10.1
2023-01-02T08:00:01.883Z,9.8
2023-01-02T08:05:02.848Z,9.5
2023-01-02T08:10:02.762Z,9.3
2023-01-02T08:15:02.692Z,9.1
2023-01-02T08:20:07.760Z,9.0
2023-01-02T08:25:02.282Z,9.1
2023-01-02T08:30:02.213Z,9.1
2023-01-02T08:35:02.153Z,9.1
2023-01-02T08:40:02.089Z,9.1
2023-01-02T08:45:02.048Z,9.1
2023-01-02T08:50:01.915Z,9.1
2023-01-02T08:55:02.798Z,9.3
2023-01-02T09:00:02.737Z,9.3
2023-01-02T09:05:02.661Z,9.3
2023-01-02T09:10:02.576Z,9.1
2023-01-02T09:15:02.395Z,9.1
2023-01-02T09:20:02.279Z,9.1
2023-01-02T09:25:02.210Z,9.1
2023-01-02T09:30:02.124Z,9.1
2023-01-02T09:35:02.143Z,9.1
2023-01-02T09:40:02.445Z,9.1
2023-01-02T09:45:08.150Z,9.0
2023-01-02T09:50:02.681Z,9.0
2023-01-02T09:55:02.695Z,9.0
2023-01-02T10:00:02.635Z,9.0
2023-01-02T10:05:05.865Z,8.6
2023-01-02T10:10:02.821Z,8.6
2023-01-02T10:15:02.860Z,8.5
2023-01-02T10:20:02.795Z,8.6
2023-01-02T10:25:02.743Z,8.5
2023-01-02T10:30:02.664Z,8.5
2023-01-02T10:35:02.626Z,8.6
2023-01-02T10:40:02.516Z,8.6
2023-01-02T10:45:02.374Z,8.6
2023-01-02T10:50:02.302Z,8.6
2023-01-02T10:55:02.549Z,8.6
2023-01-02T11:00:02.519Z,8.6
2023-01-02T11:05:04.483Z,8.8
2023-01-02T11:10:02.358Z,8.8
2023-01-02T11:15:02.273Z,9.6
2023-01-02T11:20:02.198Z,9.6
2023-01-02T11:25:02.070Z,10.0
2023-01-02T11:30:01.994Z,10.0
2023-01-02T11:35:04.108Z,10.1
2023-01-02T11:40:05.521Z,10.1
2023-01-02T11:45:02.435Z,10.1
2023-01-02T11:50:02.337Z,10.1
2023-01-02T11:55:02.246Z,10.1
2023-01-02T12:00:02.092Z,10.1
2023-01-02T12:05:02.022Z,10.1
2023-01-02T12:10:01.962Z,10.1
2023-01-02T12:15:01.895Z,10.1
2023-01-02T12:20:05.678Z,10.1
2023-01-02T12:25:02.089Z,10.1
2023-01-02T12:30:02.137Z,10.1
2023-01-02T12:35:02.241Z,10.1
2023-01-02T12:40:02.265Z,9.8
2023-01-02T12:45:02.329Z,9.8
2023-01-02T12:50:02.353Z,9.8
2023-01-02T12:55:02.366Z,9.8
2023-01-02T13:00:02.367Z,9.8
2023-01-02T13:05:02.263Z,9.8
2023-01-02T13:10:02.196Z,9.8
2023-01-02T13:15:02.140Z,9.6
2023-01-02T13:20:12.160Z,9.8
2023-01-02T13:25:02.113Z,9.6
2023-01-02T13:30:02.068Z,9.6
2023-01-02T13:35:02.000Z,9.6
2023-01-02T13:40:01.933Z,9.6
2023-01-02T13:45:01.944Z,9.6
2023-01-02T13:50:02.122Z,9.6
2023-01-02T13:55:02.004Z,9.6
2023-01-02T14:00:01.836Z,9.6
2023-01-02T14:05:03.149Z,9.6
2023-01-02T14:10:07.874Z,9.5
2023-01-02T14:15:02.765Z,9.6
2023-01-02T14:20:02.767Z,9.6
2023-01-02T14:25:02.744Z,9.5
2023-01-02T14:30:02.715Z,9.5
2023-01-02T14:35:02.727Z,9.5
2023-01-02T14:40:02.618Z,9.5
2023-01-02T14:45:02.534Z,9.5
2023-01-02T14:50:02.449Z,9.5
2023-01-02T14:55:02.442Z,9.5
2023-01-02T15:00:02.310Z,9.5
2023-01-02T15:05:02.524Z,9.5
2023-01-02T15:10:02.542Z,9.5
2023-01-02T15:15:02.526Z,9.5
2023-01-02T15:20:02.502Z,9.3
2023-01-02T15:25:12.467Z,9.3
2023-01-02T15:30:02.505Z,9.3
2023-01-02T15:35:02.537Z,9.3
2023-01-02T15:40:02.533Z,9.3
2023-01-02T15:45:02.400Z,9.3
2023-01-02T15:50:02.323Z,9.1
2023-01-02T15:55:02.488Z,9.1
2023-01-02T16:00:02.873Z,9.1
2023-01-02T16:05:03.097Z,8.5
2023-01-02T16:10:02.057Z,8.3
2023-01-02T16:15:03.192Z,8.3
2023-01-02T16:20:02.229Z,8.5
2023-01-02T16:25:02.418Z,7.5
2023-01-02T16:30:04.957Z,6.9
2023-01-02T16:35:01.978Z,6.5
2023-01-02T16:40:02.025Z,6.6
2023-01-02T16:45:02.068Z,6.6
2023-01-02T16:50:01.995Z,6.6
2023-01-02T16:55:01.934Z,6.9
2023-01-02T17:00:02.889Z,6.9
2023-01-02T17:05:02.833Z,6.9
2023-01-02T17:10:02.930Z,6.9
2023-01-02T17:15:02.031Z,7.0
2023-01-02T17:20:02.061Z,7.0
2023-01-02T17:25:01.990Z,7.1
2023-01-02T17:30:01.994Z,7.1
2023-01-02T17:35:01.903Z,7.4
2023-01-02T17:40:03.020Z,7.5
2023-01-02T17:45:03.982Z,7.5
2023-01-02T17:50:02.053Z,7.6
2023-01-02T17:55:02.297Z,7.6
2023-01-02T18:00:02.401Z,7.5
2023-01-02T18:05:02.563Z,7.4
2023-01-02T18:10:08.924Z,7.5
2023-01-02T18:15:03.019Z,7.4
2023-01-02T18:20:02.061Z,7.5
2023-01-02T18:25:01.997Z,7.4
2023-01-02T18:30:01.979Z,7.4
2023-01-02T18:35:22.330Z,7.4
2023-01-02T18:40:02.759Z,7.4
2023-01-02T18:45:02.734Z,7.4
2023-01-02T18:50:08.100Z,7.4
2023-01-02T18:55:07.389Z,7.4
2023-01-02T19:00:02.399Z,7.1
2023-01-02T19:05:02.307Z,7.1
2023-01-02T19:10:02.143Z,7.1
2023-01-02T19:15:02.118Z,7.0
2023-01-02T19:20:02.029Z,7.1
2023-01-02T19:25:05.638Z,7.1
2023-01-02T19:30:01.990Z,7.0
2023-01-02T19:35:01.933Z,7.1
2023-01-02T19:40:01.837Z,7.0
2023-01-02T19:45:02.915Z,7.0
2023-01-02T19:50:02.895Z,7.0
2023-01-02T19:55:03.104Z,7.0
2023-01-02T20:00:02.012Z,7.0
2023-01-02T20:05:01.944Z,7.0
2023-01-02T20:10:01.873Z,7.0
2023-01-02T20:15:02.694Z,7.0
2023-01-02T20:20:02.562Z,6.9
2023-01-02T20:25:02.505Z,6.9
2023-01-02T20:30:02.539Z,6.9
2023-01-02T20:35:02.585Z,6.9
2023-01-02T20:40:02.622Z,6.9
2023-01-02T20:45:02.617Z,6.9
2023-01-02T20:50:02.588Z,6.5
2023-01-02T20:55:02.630Z,6.5
2023-01-02T21:00:02.794Z,6.5
2023-01-02T21:05:02.943Z,6.5
2023-01-02T21:10:01.846Z,6.4
2023-01-02T21:15:02.753Z,6.4
2023-01-02T21:20:02.712Z,6.0
2023-01-02T21:25:02.608Z,6.0
2023-01-02T21:30:02.568Z,6.0
2023-01-02T21:35:02.491Z,6.0
2023-01-02T21:40:02.438Z,5.9
2023-01-02T21:45:02.342Z,5.9
2023-01-02T21:50:02.175Z,5.9
2023-01-02T21:55:02.134Z,5.9
2023-01-02T22:00:02.066Z,5.9
2023-01-02T22:05:14.766Z,5.9
2023-01-02T22:10:08.598Z,6.0
2023-01-02T22:15:08.427Z,6.0
2023-01-02T22:20:08.318Z,6.0
2023-01-02T22:25:08.188Z,6.1
2023-01-02T22:30:33.088Z,6.1
2023-01-02T22:35:08.093Z,6.0
2023-01-02T22:40:07.969Z,5.9
2023-01-02T22:45:07.806Z,5.9
2023-01-02T22:50:12.129Z,6.0
2023-01-02T22:55:08.316Z,6.0
2023-01-02T23:00:08.133Z,6.0
2023-01-02T23:05:07.979Z,6.0
2023-01-02T23:10:07.795Z,6.0
2023-01-02T23:15:08.647Z,6.0
2023-01-02T23:20:08.445Z,6.4
2023-01-02T23:25:08.225Z,6.5
2023-01-02T23:30:08.065Z,6.5
2023-01-02T23:35:07.873Z,6.5
2023-01-02T23:40:08.714Z,6.4
2023-01-02T23:45:08.491Z,6.1
2023-01-02T23:50:08.344Z,6.1
2023-01-02T23:55:08.158Z,6.4
